Estación Meteorológica Peña el Pijo (Robertgarden) [ 11/16/19 01:56:04 CET ]

Fecha Hora Presion(HPa) Temp (°C) Humedad % Rocio (°C) Viento ( m/s) Direccion Lluvia 1Hora(mm) Lluvia 24H(mm) LLuvia Total(mm)
2019-Jul-19 01:01:49 1011.000 17.3 63 10.2         344.18
2019-Jul-19 02:02:06 1011.000 16.3 67 10.2         344.18
2019-Jul-19 03:02:04 1010.900 15.3 71 10.1         344.18
2019-Jul-19 04:05:10 1010.600 14.9 71 9.7         344.18
2019-Jul-19 05:01:38 1010.200 14.3 72 9.3         344.18
2019-Jul-19 06:01:53 1010.200 13.3 75 8.9         344.18
2019-Jul-19 07:01:43 1010.300 12.5 76 8.4         344.18
2019-Jul-19 08:01:55 1010.400 13.6 77 9.6         344.18
2019-Jul-19 09:01:46 1010.600 19.8 60 11.8         344.18
2019-Jul-19 10:01:40 1010.700 26.8 43 13.1         344.18
2019-Jul-19 11:01:44 1010.500 30.2 30 10.8         344.18
2019-Jul-19 12:01:44 1010.900 31.4 27 10.0 1.7 WSW     344.18
2019-Jul-19 13:01:51 1010.900 31.9 26 9.8         344.18
2019-Jul-19 14:02:03 1010.900 33.3 24 9.8         344.18
2019-Jul-19 15:01:23 1010.200 34.3 20 8.1 0.5 W     344.18
2019-Jul-19 16:01:44 1009.900 34.1 21 8.6         344.18
2019-Jul-19 17:01:41 1009.400 33.4 21 7.9         344.18
2019-Jul-19 18:01:42 1009.000 33.2 22 8.5         344.18
2019-Jul-19 19:01:36 1009.000 31.5 25 8.9         344.18
2019-Jul-19 20:01:55 1009.200 29.9 27 8.7 3.0 WSW     344.18
2019-Jul-19 21:01:44 1009.500 27.4 32 9.2         344.18
2019-Jul-19 22:01:41 1009.600 25.2 38 9.8         344.18
2019-Jul-19 23:02:01 1010.100 24.1 44 11.0         344.18

Temperatura Máxima:34°    Temperatura Mínima:12°
Presión Máxima:1011.000 Hpa    Presión Mínima:1009.000 Hpa


Volver